INFORMACIÓN METAR y TAF
METAR FOR OIIE
ADDS - METARS form results

(0513 UTC 22 August 2019)
Data provider http://aviationweather.gov/metar/data/
 
METAR text: OIIE 220500Z VRB03KT CAVOK 29/04 Q1016
Conditions at: OIIE (IMAM KHOMEINI , IR) observed 0500 UTC 22 August 2019
Temperature: 29.0°C (84°F)
Dewpoint: 4.0°C (39°F) [RH = 20%]
Pressure (altimeter): 30.00 inches Hg (1016.0 mb)
Winds: variable direction winds at 3 MPH (3 knots; 1.5 m/s)
Visibility: 6 or more miles (10+ km)
Ceiling: ceiling and visibility are OK
Clouds: unknown
Weather: no significant weather observed at this time

METAR text: OIIE 220430Z 27005KT CAVOK 27/04 Q1016
Conditions at: OIIE (IMAM KHOMEINI , IR) observed 0430 UTC 22 August 2019
Temperature: 27.0°C (81°F)
Dewpoint: 4.0°C (39°F) [RH = 23%]
Pressure (altimeter): 30.00 inches Hg (1016.0 mb)
Winds: from the W (270 degrees) at 6 MPH (5 knots; 2.6 m/s)
Visibility: 6 or more miles (10+ km)
Ceiling: ceiling and visibility are OK
Clouds: unknown
Weather: no significant weather observed at this time

Forecast for: OIIE (IMAM KHOMEINI , IR)
Text: TAF OIIE 212300Z 2200/2306 12008KT CAVOK
Forecast period: 0000 UTC 22 August 2019 to 0600 UTC 23 August 2019
Forecast type: FROM: standard forecast or significant change
Winds: from the ESE (120 degrees) at 9 MPH (8 knots; 4.1 m/s)
Visibility: 6 or more miles 10+ km)
Ceiling: unknown
Clouds: missing
Weather: NSW  (no significant weather)

 MAPA DE AEROPUERTO

 INFORMACIÓN DE PISTA
Pista 11R Longitud 13940 ft Ancho 148 ft
Elevación 3305 ft Umbral desplazado 0 ft Rumbo de pista 109
Pista 29L Longitud 13940 ft Ancho 148 ft
Elevación 3257 ft Umbral desplazado 1972 ft Rumbo de pista 289
Pista 11L Longitud 13772 ft Ancho 148 ft
Elevación 3305 ft Umbral desplazado 0 ft Rumbo de pista 109
Pista 29R Longitud 13772 ft Ancho 148 ft
Elevación 3256 ft Umbral desplazado 0 ft Rumbo de pista 289

 FRECUANCIAS DEL AEROPUERTO
Tipo ATIS Nombre ATIS Frecuencia 127.2 MHZ
Tipo GND Nombre GND Frecuencia 121.6 MHZ
Tipo TWR Nombre TWR Frecuencia 118.7 MHZ

 RADIO AYUDAS DEL AEROPUERTO
Tipo VOR-DME Nombre Imam Khomeini Frecuencia 114300 KHZ



              


PayPal

©2019 Oasis Virtual Airlines
Simulando desde el 2013

Oasis Líneas Aéreas Virtuales no está relacionada con ninguna compañía real.
Se trata de un entorno virtual de simulación aérea, sin ánimo de lucro.


Visitas: 43.054

VAM v2.6.2 [MOD.]